Time;durP1;ratioP1;P1;durP2;ratioP2;P2;SDS_P1;SDS_P2;PMS_P1;PMS_P2;Temp;Humidity;BMP_temperature;BMP_pressure;BME280_temperature;BME280_humidity;BME280_pressure;Samples;Min_cycle;Max_cycle;Signal;HPM_P1;HPM_P2
2023/12/16 00:01:46;;;;;;;18.73;5.78;;;;;;;6.54;97.05;103900.94;5051677;28;20048;-77
2023/12/16 00:04:12;;;;;;;19.40;5.55;;;;;;;6.55;97.26;103898.41;5068233;28;20037;-77
2023/12/16 00:06:37;;;;;;;18.38;6.07;;;;;;;6.53;96.70;103905.31;5072941;28;20476;-77
2023/12/16 00:09:03;;;;;;;17.05;5.80;;;;;;;6.55;95.80;103914.19;5071455;28;20040;-77
2023/12/16 00:11:28;;;;;;;23.08;5.97;;;;;;;6.55;95.76;103908.94;5072953;28;20048;-77
2023/12/16 00:13:54;;;;;;;31.58;6.95;;;;;;;6.53;95.94;103896.50;5054798;28;20059;-77
2023/12/16 00:16:19;;;;;;;23.55;6.00;;;;;;;6.56;96.16;103892.28;5072767;28;20482;-77
2023/12/16 00:18:45;;;;;;;25.63;6.05;;;;;;;6.54;95.82;103901.84;5051306;28;20051;-77
2023/12/16 00:21:10;;;;;;;30.30;7.45;;;;;;;6.55;95.68;103905.38;5065290;28;20044;-77
2023/12/16 00:23:36;;;;;;;17.15;5.53;;;;;;;6.56;96.32;103907.19;5071160;28;20511;-77
2023/12/16 00:26:02;;;;;;;24.20;6.05;;;;;;;6.57;95.60;103911.63;5072638;28;20150;-77
2023/12/16 00:28:27;;;;;;;19.48;5.60;;;;;;;6.55;94.87;103906.31;5071902;28;20219;-77
2023/12/16 00:30:53;;;;;;;13.10;5.32;;;;;;;6.54;94.63;103890.41;5071163;28;20058;-77
2023/12/16 00:33:19;;;;;;;19.35;5.50;;;;;;;6.59;94.64;103887.16;5071123;28;20036;-78
2023/12/16 00:35:44;;;;;;;27.90;6.22;;;;;;;6.58;94.15;103888.00;5072377;28;20527;-77
2023/12/16 00:38:10;;;;;;;17.42;5.15;;;;;;;6.59;93.77;103879.25;5072411;28;20487;-77
2023/12/16 00:40:35;;;;;;;16.70;5.32;;;;;;;6.59;94.06;103883.63;5072042;28;20029;-77
2023/12/16 00:43:02;;;;;;;21.52;5.38;;;;;;;6.56;94.31;103881.75;5067454;28;20367;-77
2023/12/16 00:45:28;;;;;;;24.73;5.95;;;;;;;6.57;94.75;103880.00;5067527;28;20506;-77
2023/12/16 00:47:53;;;;;;;22.15;5.88;;;;;;;6.55;94.17;103884.31;5054245;28;20069;-77
2023/12/16 00:50:19;;;;;;;15.38;5.18;;;;;;;6.54;94.13;103885.16;5068608;28;20056;-77
2023/12/16 00:52:44;;;;;;;16.27;5.20;;;;;;;6.55;94.24;103885.22;5072106;28;20060;-77
2023/12/16 00:55:10;;;;;;;17.80;5.05;;;;;;;6.51;94.83;103875.38;5072316;28;20455;-77
2023/12/16 00:57:35;;;;;;;17.40;5.28;;;;;;;6.53;95.45;103879.00;5071793;28;20181;-77
2023/12/16 01:00:01;;;;;;;14.82;5.40;;;;;;;6.53;93.92;103883.34;5071778;28;20101;-77
2023/12/16 01:02:27;;;;;;;16.95;5.40;;;;;;;6.52;94.62;103886.81;5071787;28;20025;-77
2023/12/16 01:04:53;;;;;;;15.45;5.35;;;;;;;6.50;94.52;103880.56;5070431;28;20066;-77
2023/12/16 01:07:18;;;;;;;19.83;5.30;;;;;;;6.50;95.18;103883.22;5070598;28;20040;-77
2023/12/16 01:09:44;;;;;;;19.02;5.35;;;;;;;6.50;95.42;103881.47;5052683;28;20053;-77
2023/12/16 01:12:09;;;;;;;15.77;5.32;;;;;;;6.51;95.27;103879.75;5071965;28;20159;-77
2023/12/16 01:14:34;;;;;;;15.23;4.68;;;;;;;6.50;95.07;103886.72;5071264;28;20052;-77
2023/12/16 01:17:00;;;;;;;16.75;5.20;;;;;;;6.50;95.75;103880.56;5071987;28;20111;-77
2023/12/16 01:19:26;;;;;;;16.55;4.75;;;;;;;6.47;95.34;103881.34;5070360;28;20107;-77
2023/12/16 01:21:52;;;;;;;19.33;5.35;;;;;;;6.44;95.04;103889.13;5071585;28;20115;-77
2023/12/16 01:24:17;;;;;;;21.30;5.03;;;;;;;6.45;95.69;103886.56;5071275;28;20206;-77
2023/12/16 01:26:43;;;;;;;17.58;4.90;;;;;;;6.45;95.95;103886.56;5070150;28;20036;-77
2023/12/16 01:29:08;;;;;;;15.02;4.93;;;;;;;6.46;96.41;103884.81;5070145;28;20545;-77
2023/12/16 01:31:34;;;;;;;14.98;4.70;;;;;;;6.44;95.90;103879.47;5053404;28;20120;-78
2023/12/16 01:33:59;;;;;;;14.05;4.38;;;;;;;6.44;95.84;103878.59;5071307;28;20490;-77
2023/12/16 01:36:25;;;;;;;17.20;4.70;;;;;;;6.44;95.67;103865.44;5070284;28;20094;-78
2023/12/16 01:38:50;;;;;;;11.68;4.20;;;;;;;6.42;95.74;103874.97;5071480;28;20060;-77
2023/12/16 01:41:15;;;;;;;22.25;5.45;;;;;;;6.44;95.86;103870.69;5071495;28;20041;-77
2023/12/16 01:43:41;;;;;;;17.40;5.30;;;;;;;6.42;95.29;103874.97;5071101;28;20036;-77
2023/12/16 01:46:07;;;;;;;16.90;4.97;;;;;;;6.44;94.41;103876.84;5070235;28;20426;-77
2023/12/16 01:48:34;;;;;;;22.80;5.25;;;;;;;6.44;95.45;103876.84;5071456;28;20039;-77
2023/12/16 01:51:00;;;;;;;16.08;4.15;;;;;;;6.45;94.93;103877.75;5068287;28;20085;-77
2023/12/16 01:53:28;;;;;;;17.90;4.60;;;;;;;6.44;94.82;103874.22;5071254;28;20493;-77
2023/12/16 01:55:54;;;;;;;14.32;4.13;;;;;;;6.44;94.49;103868.94;5071448;28;20033;-77
2023/12/16 01:58:21;;;;;;;20.08;4.80;;;;;;;6.43;93.39;103869.78;5053258;28;20101;-77
2023/12/16 02:00:50;;;;;;;18.27;5.07;;;;;;;6.43;93.25;103861.00;5069719;28;20494;-77
2023/12/16 02:03:18;;;;;;;11.38;3.88;;;;;;;6.40;94.38;103872.25;5071180;28;20060;-77
2023/12/16 02:05:44;;;;;;;14.73;3.67;;;;;;;6.37;93.28;103861.63;5069835;28;20115;-77
2023/12/16 02:08:09;;;;;;;15.20;4.38;;;;;;;6.39;93.00;103867.84;5053064;28;20111;-77
2023/12/16 02:10:35;;;;;;;14.88;3.78;;;;;;;6.38;93.39;103870.41;5069938;28;20114;-77
2023/12/16 02:13:04;;;;;;;17.98;4.63;;;;;;;6.34;93.94;103872.00;5070086;28;20444;-77
2023/12/16 02:15:30;;;;;;;11.15;3.85;;;;;;;6.31;94.36;103877.16;5069905;28;20067;-77
2023/12/16 02:17:56;;;;;;;15.40;3.92;;;;;;;6.31;93.78;103866.63;5070260;28;20072;-78
2023/12/16 02:20:22;;;;;;;15.65;3.92;;;;;;;6.27;93.78;103866.41;5069668;28;20076;-77
2023/12/16 02:22:48;;;;;;;14.23;4.00;;;;;;;6.24;93.57;103877.72;5069669;28;20035;-78
2023/12/16 02:25:15;;;;;;;10.13;3.75;;;;;;;6.20;93.90;103875.75;5069415;28;20048;-77
2023/12/16 02:27:49;;;;;;;15.32;3.88;;;;;;;6.14;94.00;103876.38;5070991;28;20072;-77
2023/12/16 02:30:14;;;;;;;12.63;3.85;;;;;;;6.08;94.73;103878.72;5069854;28;20045;-77
2023/12/16 02:32:43;;;;;;;12.07;4.13;;;;;;;6.05;94.40;103883.84;5052949;28;20600;-77
2023/12/16 02:35:08;;;;;;;15.48;3.85;;;;;;;5.97;95.71;103882.63;5069486;28;20044;-77
2023/12/16 02:37:34;;;;;;;18.77;4.40;;;;;;;5.95;95.30;103887.78;5069950;28;20086;-77
2023/12/16 02:39:59;;;;;;;11.52;3.38;;;;;;;5.93;95.52;103883.25;5052814;28;20421;-77
2023/12/16 02:42:26;;;;;;;12.10;3.58;;;;;;;5.92;95.72;103881.47;5071083;28;20052;-78
2023/12/16 02:44:52;;;;;;;12.40;3.92;;;;;;;5.88;95.81;103876.88;5067162;28;20028;-78
2023/12/16 02:47:17;;;;;;;20.63;4.38;;;;;;;5.88;96.43;103876.88;5056481;28;20054;-77
2023/12/16 02:49:44;;;;;;;14.18;3.63;;;;;;;5.87;96.27;103878.63;5074218;28;20443;-77
2023/12/16 02:52:10;;;;;;;13.75;3.80;;;;;;;5.84;96.07;103877.59;5072054;28;20044;-77
2023/12/16 02:54:36;;;;;;;17.58;4.20;;;;;;;5.85;96.23;103869.75;5074164;28;20059;-77
2023/12/16 02:57:01;;;;;;;16.30;4.30;;;;;;;5.85;95.62;103867.13;5073161;28;20476;-77
2023/12/16 02:59:26;;;;;;;13.95;3.75;;;;;;;5.83;95.51;103866.16;5074116;28;20040;-77
2023/12/16 03:01:52;;;;;;;18.65;3.90;;;;;;;5.84;95.93;103865.34;5072850;28;20033;-77
2023/12/16 03:04:18;;;;;;;19.85;3.97;;;;;;;5.85;95.72;103868.88;5072767;28;20040;-77
2023/12/16 03:06:44;;;;;;;14.10;3.65;;;;;;;5.82;95.98;103872.25;5074271;28;20126;-77
2023/12/16 03:09:10;;;;;;;13.68;3.63;;;;;;;5.79;96.01;103869.50;5073857;28;20452;-77
2023/12/16 03:11:35;;;;;;;15.15;3.28;;;;;;;5.77;95.91;103868.50;5056399;28;20047;-77
2023/12/16 03:14:01;;;;;;;14.18;3.88;;;;;;;5.75;96.00;103868.44;5055996;28;20029;-77
2023/12/16 03:16:26;;;;;;;13.23;4.38;;;;;;;5.77;95.90;103876.41;5074065;28;20044;-77
2023/12/16 03:18:52;;;;;;;15.32;3.90;;;;;;;5.72;96.77;103868.28;5073611;28;20079;-77
2023/12/16 03:21:17;;;;;;;16.67;3.70;;;;;;;5.74;96.42;103871.91;5073769;28;20048;-77
2023/12/16 03:23:43;;;;;;;16.90;4.38;;;;;;;5.73;96.32;103874.44;5073928;28;20039;-77
2023/12/16 03:26:09;;;;;;;17.60;4.20;;;;;;;5.73;96.62;103871.81;5072364;28;20116;-77
2023/12/16 03:28:34;;;;;;;14.00;4.18;;;;;;;5.71;96.18;103871.78;5073334;28;20102;-77
2023/12/16 03:31:00;;;;;;;16.15;4.00;;;;;;;5.70;96.49;103854.16;5073498;28;20044;-77
2023/12/16 03:33:26;;;;;;;12.05;3.78;;;;;;;5.70;96.67;103859.44;5055645;28;20048;-77
2023/12/16 03:35:51;;;;;;;19.92;4.10;;;;;;;5.70;96.82;103867.31;5073632;28;20606;-77
2023/12/16 03:38:17;;;;;;;14.88;4.00;;;;;;;5.70;96.43;103869.94;5073567;28;20044;-77
2023/12/16 03:40:42;;;;;;;12.85;3.55;;;;;;;5.70;96.52;103866.44;5073408;28;20041;-77
2023/12/16 03:43:08;;;;;;;16.27;4.30;;;;;;;5.68;96.33;103860.19;5073020;28;20047;-77
2023/12/16 03:45:33;;;;;;;18.75;4.25;;;;;;;5.67;96.60;103864.56;5052003;28;20048;-77
2023/12/16 03:47:58;;;;;;;12.05;3.60;;;;;;;5.66;96.37;103861.84;5069177;28;20040;-77
2023/12/16 03:50:24;;;;;;;17.42;3.95;;;;;;;5.62;96.69;103855.56;5071234;28;20024;-77
2023/12/16 03:52:49;;;;;;;12.45;4.25;;;;;;;5.62;97.53;103859.91;5071720;28;20395;-77
2023/12/16 03:55:15;;;;;;;20.25;5.10;;;;;;;5.59;97.39;103858.03;5073546;28;20048;-78
2023/12/16 03:57:40;;;;;;;18.70;4.43;;;;;;;5.61;97.05;103864.25;5073011;28;20025;-77
2023/12/16 04:00:08;;;;;;;13.38;4.20;;;;;;;5.64;97.56;103860.88;5072711;28;20407;-77
2023/12/16 04:02:37;;;;;;;20.15;4.90;;;;;;;5.64;97.16;103860.88;5073603;28;20124;-77
2023/12/16 04:05:03;;;;;;;11.73;3.78;;;;;;;5.65;97.95;103862.69;5071464;28;20128;-77
2023/12/16 04:07:28;;;;;;;18.48;5.10;;;;;;;5.64;97.20;103864.41;5071785;28;20123;-77
2023/12/16 04:09:54;;;;;;;15.18;4.10;;;;;;;5.67;97.52;103866.28;5071240;28;20036;-77
2023/12/16 04:12:19;;;;;;;17.42;5.07;;;;;;;5.64;97.28;103872.31;5073066;28;20040;-77
2023/12/16 04:14:46;;;;;;;17.85;4.50;;;;;;;5.66;98.08;103875.00;5071249;28;20067;-77
2023/12/16 04:17:11;;;;;;;16.40;4.50;;;;;;;5.68;97.56;103875.97;5038268;28;20029;-78
2023/12/16 04:19:37;;;;;;;21.85;4.88;;;;;;;5.62;97.59;103870.44;5071108;28;20132;-77
2023/12/16 04:22:02;;;;;;;20.65;5.05;;;;;;;5.66;97.90;103870.63;5071043;28;20036;-78
2023/12/16 04:24:28;;;;;;;21.00;4.15;;;;;;;5.66;98.18;103875.00;5071406;28;20036;-77
2023/12/16 04:26:55;;;;;;;20.77;4.60;;;;;;;5.67;98.63;103867.19;5054654;28;20075;-77
2023/12/16 04:29:21;;;;;;;12.48;4.03;;;;;;;5.69;98.62;103864.63;5053694;28;20061;-77
2023/12/16 04:31:46;;;;;;;17.13;3.97;;;;;;;5.68;98.88;103866.34;5072452;28;20127;-77
2023/12/16 04:34:11;;;;;;;16.77;4.57;;;;;;;5.73;98.71;103861.31;5072218;28;20030;-77
2023/12/16 04:36:37;;;;;;;21.10;4.20;;;;;;;5.75;98.77;103857.91;5072396;28;20029;-77
2023/12/16 04:39:07;;;;;;;16.02;4.55;;;;;;;5.77;98.68;103856.25;5072641;28;20062;-77
2023/12/16 04:41:33;;;;;;;16.77;4.72;;;;;;;5.77;98.88;103860.63;5072195;28;20041;-77
2023/12/16 04:43:58;;;;;;;18.70;4.70;;;;;;;5.75;99.58;103850.03;5070525;28;20097;-77
2023/12/16 04:46:24;;;;;;;18.58;4.32;;;;;;;5.75;99.22;103854.38;5053654;28;20098;-77
2023/12/16 04:48:49;;;;;;;17.40;4.60;;;;;;;5.77;99.46;103858.88;5054164;28;20092;-77
2023/12/16 04:51:15;;;;;;;18.45;5.32;;;;;;;5.79;99.01;103856.34;5053320;28;20040;-77
2023/12/16 04:53:41;;;;;;;20.08;4.78;;;;;;;5.79;99.53;103841.47;5070749;28;20045;-77
2023/12/16 04:56:07;;;;;;;20.00;4.70;;;;;;;5.77;99.58;103845.75;5070823;28;20044;-77
2023/12/16 04:58:32;;;;;;;19.75;4.45;;;;;;;5.76;99.98;103857.09;5070460;28;20052;-77
2023/12/16 05:00:58;;;;;;;14.43;4.47;;;;;;;5.73;100.00;103853.41;5071935;28;20074;-77
2023/12/16 05:03:23;;;;;;;19.10;4.78;;;;;;;5.76;99.96;103849.22;5071783;28;20036;-77
2023/12/16 05:05:49;;;;;;;17.10;4.38;;;;;;;5.77;99.62;103858.88;5071761;28;20527;-77
2023/12/16 05:08:14;;;;;;;23.80;4.82;;;;;;;5.71;100.00;103850.72;5071254;28;20045;-77
2023/12/16 05:10:40;;;;;;;16.45;4.72;;;;;;;5.72;100.00;103855.16;5071787;28;20093;-77
2023/12/16 05:13:09;;;;;;;19.85;4.85;;;;;;;5.70;100.00;103855.91;5054191;28;20131;-77
2023/12/16 05:15:35;;;;;;;14.85;4.72;;;;;;;5.68;100.00;103860.19;5070195;28;20407;-77
2023/12/16 05:18:00;;;;;;;18.42;5.93;;;;;;;5.70;100.00;103864.69;5053847;28;20036;-78
2023/12/16 05:20:25;;;;;;;20.10;4.45;;;;;;;5.69;100.00;103872.53;5070097;28;20028;-78
2023/12/16 05:22:51;;;;;;;17.95;4.88;;;;;;;5.68;100.00;103865.44;5070511;28;20127;-77
2023/12/16 05:25:16;;;;;;;24.33;5.70;;;;;;;5.67;100.00;103869.81;5070036;28;20062;-78
2023/12/16 05:27:42;;;;;;;14.52;4.20;;;;;;;5.66;100.00;103878.50;5053650;28;20036;-78
2023/12/16 05:30:08;;;;;;;17.83;4.43;;;;;;;5.66;100.00;103875.00;5070184;28;20040;-77
2023/12/16 05:32:33;;;;;;;17.65;5.30;;;;;;;5.65;100.00;103870.56;5070329;28;20086;-77
2023/12/16 05:34:59;;;;;;;19.45;4.82;;;;;;;5.62;100.00;103863.44;5071526;28;20036;-77
2023/12/16 05:37:24;;;;;;;15.55;3.97;;;;;;;5.62;100.00;103863.44;5071575;28;20067;-77
2023/12/16 05:39:50;;;;;;;15.63;4.25;;;;;;;5.59;100.00;103866.81;5070093;28;20511;-77
2023/12/16 05:42:15;;;;;;;16.92;5.03;;;;;;;5.57;100.00;103864.94;5071484;28;20066;-77
2023/12/16 05:44:41;;;;;;;20.98;5.05;;;;;;;5.55;100.00;103867.50;5052696;28;20040;-77
2023/12/16 05:47:07;;;;;;;19.67;5.30;;;;;;;5.52;100.00;103863.84;5071527;28;20497;-77
2023/12/16 05:49:33;;;;;;;20.55;4.55;;;;;;;5.55;100.00;103863.97;5071046;28;20047;-77
2023/12/16 05:51:59;;;;;;;17.08;4.88;;;;;;;5.51;100.00;103856.75;5069206;28;20106;-78
2023/12/16 05:54:24;;;;;;;20.08;4.90;;;;;;;5.48;100.00;103864.50;5071579;28;20356;-77
2023/12/16 05:56:50;;;;;;;17.92;4.43;;;;;;;5.46;100.00;103843.41;5071452;28;20040;-77
2023/12/16 05:59:16;;;;;;;20.35;5.65;;;;;;;5.44;100.00;103849.41;5071472;28;20047;-77
2023/12/16 06:01:41;;;;;;;16.90;3.78;;;;;;;5.42;100.00;103840.56;5071364;28;20036;-77
2023/12/16 06:04:07;;;;;;;17.15;4.05;;;;;;;5.41;100.00;103863.31;5069515;28;20116;-77
2023/12/16 06:06:32;;;;;;;12.15;3.80;;;;;;;5.37;100.00;103867.53;5069874;28;20075;-77
2023/12/16 06:08:58;;;;;;;17.23;4.43;;;;;;;5.37;100.00;103856.13;5071033;28;20038;-78
2023/12/16 06:11:23;;;;;;;19.80;4.22;;;;;;;5.38;100.00;103864.06;5069815;28;20043;-77
2023/12/16 06:13:53;;;;;;;20.48;4.45;;;;;;;5.36;100.00;103863.06;5069818;28;20210;-78
2023/12/16 06:16:18;;;;;;;20.25;4.68;;;;;;;5.36;100.00;103863.06;5036997;28;20102;-78
2023/12/16 06:18:46;;;;;;;15.13;4.20;;;;;;;5.39;100.00;103859.72;5069734;28;20040;-77
2023/12/16 06:21:11;;;;;;;22.38;4.45;;;;;;;5.38;100.00;103856.19;5073278;28;20115;-77
2023/12/16 06:23:37;;;;;;;17.85;4.25;;;;;;;5.34;100.00;103864.75;5074462;28;20038;-78
2023/12/16 06:26:02;;;;;;;21.42;4.05;;;;;;;5.33;100.00;103872.56;5073713;28;20085;-77
2023/12/16 06:28:28;;;;;;;20.98;4.75;;;;;;;5.32;100.00;103861.16;5074596;28;20049;-77
2023/12/16 06:30:54;;;;;;;19.02;5.05;;;;;;;5.32;100.00;103857.63;5074810;28;20116;-77
2023/12/16 06:33:19;;;;;;;17.98;4.38;;;;;;;5.32;100.00;103861.16;5073354;28;20040;-77
2023/12/16 06:35:45;;;;;;;17.38;4.25;;;;;;;5.31;100.00;103861.06;5073341;28;20063;-77
2023/12/16 06:38:10;;;;;;;15.63;4.45;;;;;;;5.32;100.00;103871.66;5074510;28;20031;-77
2023/12/16 06:40:36;;;;;;;20.27;4.65;;;;;;;5.28;100.00;103866.19;5074302;28;20116;-78
2023/12/16 06:43:02;;;;;;;17.05;4.35;;;;;;;5.31;100.00;103861.06;5072702;28;20199;-77
2023/12/16 06:45:28;;;;;;;17.83;4.43;;;;;;;5.30;100.00;103864.53;5074326;28;20044;-77
2023/12/16 06:47:53;;;;;;;20.45;4.30;;;;;;;5.29;100.00;103867.97;5056430;28;20040;-77
2023/12/16 06:50:19;;;;;;;17.60;4.20;;;;;;;5.30;100.00;103873.31;5071928;28;20046;-77
2023/12/16 06:52:44;;;;;;;16.38;4.40;;;;;;;5.27;100.00;103867.91;5074350;28;20032;-78
2023/12/16 06:55:10;;;;;;;15.60;4.68;;;;;;;5.27;100.00;103873.19;5073928;28;20040;-77
2023/12/16 06:57:35;;;;;;;19.60;3.97;;;;;;;5.25;100.00;103872.19;5072917;28;20040;-77
2023/12/16 07:00:01;;;;;;;21.27;4.15;;;;;;;5.26;100.00;103879.22;5072542;28;20044;-77
2023/12/16 07:02:26;;;;;;;14.88;3.80;;;;;;;5.26;100.00;103870.47;5072932;28;20123;-77
2023/12/16 07:04:52;;;;;;;19.30;4.95;;;;;;;5.28;100.00;103872.34;5055801;28;20101;-77
2023/12/16 07:07:17;;;;;;;12.35;3.80;;;;;;;5.25;100.00;103866.94;5074098;28;20119;-77
2023/12/16 07:09:43;;;;;;;17.08;4.35;;;;;;;5.23;100.00;103863.31;5073988;28;20059;-77
2023/12/16 07:12:09;;;;;;;13.63;4.00;;;;;;;5.21;100.00;103867.59;5073429;28;20384;-77
2023/12/16 07:14:34;;;;;;;22.13;3.70;;;;;;;5.21;100.00;103875.47;5073327;28;20142;-77
2023/12/16 07:17:00;;;;;;;21.17;4.68;;;;;;;5.20;100.00;103873.69;5066580;28;20558;-77
2023/12/16 07:19:27;;;;;;;19.58;4.55;;;;;;;5.16;100.00;103872.63;5071800;28;20082;-77
2023/12/16 07:21:53;;;;;;;16.55;3.95;;;;;;;5.18;100.00;103873.59;5055704;28;20047;-77
2023/12/16 07:24:19;;;;;;;18.52;4.10;;;;;;;5.16;100.00;103891.00;5066433;28;20035;-78
2023/12/16 07:26:44;;;;;;;16.08;4.13;;;;;;;5.20;100.00;103886.84;5061124;28;20044;-78
2023/12/16 07:29:10;;;;;;;15.40;4.05;;;;;;;5.16;100.00;103884.88;5061104;28;20274;-78
2023/12/16 07:31:35;;;;;;;20.52;4.85;;;;;;;5.13;100.00;103897.84;5059803;28;20042;-77
2023/12/16 07:34:01;;;;;;;19.17;4.18;;;;;;;5.15;100.00;103901.47;5061016;28;20171;-77
2023/12/16 07:36:26;;;;;;;14.45;4.18;;;;;;;5.15;100.00;103898.84;5043983;28;20125;-78
2023/12/16 07:38:52;;;;;;;24.05;5.43;;;;;;;5.12;100.00;103899.59;5044999;28;20391;-78
2023/12/16 07:41:18;;;;;;;19.13;3.90;;;;;;;5.13;100.00;103898.75;5060589;28;20125;-78
2023/12/16 07:43:43;;;;;;;19.88;4.47;;;;;;;5.11;100.00;103891.63;5026530;28;20044;-78
2023/12/16 07:46:09;;;;;;;10.90;3.95;;;;;;;5.16;100.00;103903.25;5059972;28;20092;-78
2023/12/16 07:48:34;;;;;;;19.50;4.47;;;;;;;5.08;100.00;103895.00;5065826;28;20036;-78
2023/12/16 07:51:00;;;;;;;12.02;4.07;;;;;;;5.10;100.00;103901.25;5050277;28;20960;-78
2023/12/16 07:53:25;;;;;;;20.02;5.05;;;;;;;5.07;100.00;103905.41;5057679;28;20036;-78
2023/12/16 07:55:51;;;;;;;20.65;4.68;;;;;;;5.04;100.00;103897.41;5045466;28;20064;-78
2023/12/16 07:58:16;;;;;;;17.52;4.22;;;;;;;5.06;100.00;103899.28;5043288;28;21919;-78
2023/12/16 08:00:42;;;;;;;17.50;4.18;;;;;;;5.05;100.00;103910.63;5056279;28;20120;-78
2023/12/16 08:03:07;;;;;;;21.20;4.72;;;;;;;5.05;100.00;103910.63;5057155;28;20525;-78
2023/12/16 08:05:33;;;;;;;19.33;4.45;;;;;;;5.07;100.00;103923.81;5057622;28;20029;-78
2023/12/16 08:07:59;;;;;;;21.00;4.57;;;;;;;5.11;100.00;103921.41;5043809;28;20056;-78
2023/12/16 08:10:24;;;;;;;21.25;5.32;;;;;;;5.11;100.00;103920.53;5048424;28;20059;-78
2023/12/16 08:12:50;;;;;;;12.77;3.80;;;;;;;5.16;100.00;103916.41;5071551;28;20043;-78
2023/12/16 08:15:16;;;;;;;15.65;4.35;;;;;;;5.14;100.00;103915.41;5071486;28;20041;-78
2023/12/16 08:17:42;;;;;;;13.32;3.47;;;;;;;5.16;100.00;103926.91;5071680;28;20043;-78
2023/12/16 08:20:08;;;;;;;21.40;4.72;;;;;;;5.17;100.00;103924.38;5072319;28;20032;-78
2023/12/16 08:22:34;;;;;;;18.63;4.07;;;;;;;5.21;100.00;103928.03;5063960;28;20055;-78
2023/12/16 08:24:59;;;;;;;21.35;4.75;;;;;;;5.22;100.00;103924.59;5072443;28;20097;-78
2023/12/16 08:27:25;;;;;;;15.65;3.83;;;;;;;5.33;100.00;103930.38;5072532;28;20036;-78
2023/12/16 08:29:50;;;;;;;16.98;4.10;;;;;;;5.36;100.00;103927.88;5071800;28;20131;-78
2023/12/16 08:32:16;;;;;;;14.00;3.85;;;;;;;5.34;100.00;103924.28;5072646;28;20063;-78
2023/12/16 08:34:42;;;;;;;19.80;3.80;;;;;;;5.36;100.00;103922.63;5072720;28;20052;-78
2023/12/16 08:37:07;;;;;;;20.27;4.00;;;;;;;5.44;100.00;103926.56;5072448;28;20044;-78
2023/12/16 08:39:33;;;;;;;18.55;3.75;;;;;;;5.43;100.00;103926.47;5070747;28;20106;-78
2023/12/16 08:41:58;;;;;;;16.15;3.25;;;;;;;5.51;100.00;103922.47;5054280;28;20023;-78
2023/12/16 08:44:24;;;;;;;18.13;3.90;;;;;;;5.54;100.00;103925.28;5068662;28;20399;-78
2023/12/16 08:46:49;;;;;;;14.95;3.55;;;;;;;5.55;100.00;103904.31;5070821;28;20033;-78
2023/12/16 08:49:15;;;;;;;13.90;3.67;;;;;;;5.56;100.00;103903.50;5072106;28;20449;-78
2023/12/16 08:51:41;;;;;;;20.00;4.43;;;;;;;5.62;100.00;103904.63;5069429;28;20040;-78
2023/12/16 08:54:06;;;;;;;19.80;4.13;;;;;;;5.64;100.00;103916.06;5071806;28;20439;-78
2023/12/16 08:56:32;;;;;;;15.85;4.32;;;;;;;5.70;100.00;103919.00;5070469;28;20037;-78
2023/12/16 08:58:57;;;;;;;18.63;3.70;;;;;;;5.74;100.00;103918.34;5071989;28;20487;-78
2023/12/16 09:01:23;;;;;;;19.50;4.28;;;;;;;5.76;100.00;103924.53;5070004;28;20044;-78
2023/12/16 09:03:48;;;;;;;19.33;3.78;;;;;;;5.77;100.00;103931.63;5071937;28;20099;-78
2023/12/16 09:06:15;;;;;;;19.48;4.70;;;;;;;5.80;100.00;103939.66;5071761;28;20036;-78
2023/12/16 09:08:40;;;;;;;18.15;4.15;;;;;;;5.91;100.00;103938.44;5069313;28;20468;-78
2023/12/16 09:11:06;;;;;;;15.73;3.70;;;;;;;5.89;100.00;103932.22;5067588;28;20075;-78
2023/12/16 09:13:31;;;;;;;14.35;4.50;;;;;;;5.98;100.00;103947.53;5065475;28;20171;-80
2023/12/16 09:15:58;;;;;;;22.45;5.00;;;;;;;6.03;100.00;103946.94;5069251;28;20033;-80
2023/12/16 09:18:23;;;;;;;20.65;4.35;;;;;;;6.11;100.00;103947.31;5070404;28;20021;-79
2023/12/16 09:20:49;;;;;;;20.35;4.82;;;;;;;6.18;100.00;103949.38;5050131;28;20069;-79
2023/12/16 09:23:14;;;;;;;22.60;5.85;;;;;;;6.22;100.00;103938.16;5066306;28;20049;-80
2023/12/16 09:25:39;;;;;;;23.42;5.10;;;;;;;6.30;100.00;103943.75;5036535;28;20082;-80
2023/12/16 09:28:05;;;;;;;21.45;4.97;;;;;;;6.34;100.00;103945.72;5036275;28;20044;-80
2023/12/16 09:30:31;;;;;;;20.05;4.70;;;;;;;6.38;100.00;103947.66;5071136;28;20128;-80
2023/12/16 09:32:56;;;;;;;18.50;4.82;;;;;;;6.43;100.00;103955.78;5052859;28;20059;-80
2023/12/16 09:35:22;;;;;;;16.42;4.47;;;;;;;6.49;100.00;103955.13;5069992;28;20040;-80
2023/12/16 09:37:48;;;;;;;20.38;4.82;;;;;;;6.59;100.00;103954.72;5051817;28;20049;-79
2023/12/16 09:40:14;;;;;;;17.98;5.07;;;;;;;6.62;100.00;103954.84;5070719;28;20113;-80
2023/12/16 09:42:44;;;;;;;27.45;5.90;;;;;;;6.71;100.00;103957.91;5069160;28;20117;-80
2023/12/16 09:45:14;;;;;;;27.70;4.82;;;;;;;6.76;100.00;103945.81;5052853;28;20128;-80
2023/12/16 09:47:39;;;;;;;23.33;5.43;;;;;;;6.81;100.00;103964.47;5070900;28;20036;-80
2023/12/16 09:50:06;;;;;;;23.48;5.93;;;;;;;6.88;100.00;103974.44;5062409;28;20035;-80
2023/12/16 09:52:32;;;;;;;18.63;5.15;;;;;;;6.96;100.00;103973.03;5066785;28;20398;-80
2023/12/16 09:54:59;;;;;;;23.92;5.65;;;;;;;7.00;100.00;103972.34;5037138;28;20067;-80
2023/12/16 09:57:25;;;;;;;17.75;5.35;;;;;;;7.08;100.00;103970.03;5074014;28;20056;-80
2023/12/16 09:59:52;;;;;;;19.02;5.65;;;;;;;7.12;100.00;103977.22;5074970;28;20024;-80
2023/12/16 10:02:28;;;;;;;22.60;6.50;;;;;;;7.14;100.00;103975.53;5070019;28;20044;-80
2023/12/16 10:04:58;;;;;;;22.13;5.88;;;;;;;7.17;100.00;103978.34;5065587;28;20083;-80
2023/12/16 10:07:24;;;;;;;25.27;6.53;;;;;;;7.25;100.00;103987.47;5075303;28;20067;-80
2023/12/16 10:09:50;;;;;;;21.05;6.28;;;;;;;7.26;100.00;103981.34;5072692;28;20033;-80
2023/12/16 10:12:15;;;;;;;20.95;6.25;;;;;;;7.33;100.00;103977.22;5069536;28;20040;-80
2023/12/16 10:14:46;;;;;;;20.35;5.60;;;;;;;7.32;100.00;103970.19;5074960;28;20040;-80
2023/12/16 10:17:11;;;;;;;29.03;6.33;;;;;;;7.38;100.00;103972.16;5075045;28;20039;-80
2023/12/16 10:19:37;;;;;;;23.38;6.07;;;;;;;7.37;100.00;103976.53;5073251;28;20045;-80
2023/12/16 10:22:02;;;;;;;22.92;6.07;;;;;;;7.41;100.00;103982.81;5073742;28;20034;-80
2023/12/16 10:24:28;;;;;;;23.88;7.10;;;;;;;7.41;100.00;103982.81;5056810;28;20032;-80
2023/12/16 10:26:54;;;;;;;26.83;6.63;;;;;;;7.44;100.00;103983.88;5053678;28;20094;-80
2023/12/16 10:29:20;;;;;;;20.77;6.43;;;;;;;7.44;100.00;103986.50;5073155;28;20052;-80
2023/12/16 10:31:46;;;;;;;21.17;6.10;;;;;;;7.47;100.00;103983.97;5073649;28;20036;-80
2023/12/16 10:34:11;;;;;;;24.83;6.55;;;;;;;7.51;100.00;103982.34;5073345;28;20093;-80
2023/12/16 10:36:37;;;;;;;28.35;6.57;;;;;;;7.53;100.00;103972.78;5075001;28;20050;-80
2023/12/16 10:39:02;;;;;;;27.95;7.28;;;;;;;7.56;100.00;103961.44;5073172;28;20055;-80
2023/12/16 10:41:28;;;;;;;26.80;6.40;;;;;;;7.55;100.00;103968.47;5073086;28;20494;-80
2023/12/16 10:43:54;;;;;;;20.95;5.50;;;;;;;7.60;100.00;103952.84;5073530;28;20042;-80
2023/12/16 10:46:20;;;;;;;23.27;6.88;;;;;;;7.56;100.00;103959.72;5056523;28;20040;-80
2023/12/16 10:48:47;;;;;;;23.33;6.57;;;;;;;7.62;100.00;103967.00;5073251;28;20040;-80
2023/12/16 10:51:15;;;;;;;32.95;7.35;;;;;;;7.62;100.00;103964.34;5072362;28;20039;-80
2023/12/16 10:54:01;;;;;;;26.08;6.53;;;;;;;7.64;100.00;103958.31;5074181;28;20036;-80
2023/12/16 10:56:30;;;;;;;26.40;6.57;;;;;;;7.61;100.00;103958.16;5074355;28;20058;-80
2023/12/16 10:59:11;;;;;;;20.23;6.90;;;;;;;7.64;100.00;103963.59;5072876;28;20033;-80
2023/12/16 11:01:46;;;;;;;25.17;6.72;;;;;;;7.62;100.00;103953.81;5072949;28;20033;-80
2023/12/16 11:04:16;;;;;;;22.05;7.15;;;;;;;7.67;100.00;103950.50;5074165;28;20024;-80
2023/12/16 11:07:00;;;;;;;17.70;6.95;;;;;;;7.67;100.00;103949.63;5071940;28;20127;-80
2023/12/16 11:09:26;;;;;;;35.33;7.45;;;;;;;7.69;100.00;103945.28;5073760;28;20034;-80
2023/12/16 11:11:56;;;;;;;22.42;6.70;;;;;;;7.68;100.00;103940.84;5070214;28;20025;-80
2023/12/16 11:14:23;;;;;;;18.75;5.65;;;;;;;7.73;100.00;103945.47;5071081;28;20064;-80
2023/12/16 11:16:57;;;;;;;32.90;7.85;;;;;;;7.71;100.00;103941.84;5069155;28;20055;-80